createdAt,value
2019-05-05T00:01:28.381Z,7.95
2019-05-05T00:03:44.563Z,7.56
2019-05-05T00:05:54.762Z,7.45
2019-05-05T00:08:02.168Z,7.64
2019-05-05T00:10:12.029Z,7.62
2019-05-05T00:12:54.992Z,7.67
2019-05-05T00:15:22.301Z,7.78
2019-05-05T00:17:30.213Z,7.38
2019-05-05T00:19:37.551Z,7.37
2019-05-05T00:21:44.865Z,7.31
2019-05-05T00:23:52.285Z,7.39
2019-05-05T00:26:00.238Z,7.63
2019-05-05T00:28:07.716Z,7.53
2019-05-05T00:30:15.512Z,7.32
2019-05-05T00:32:24.496Z,7.30
2019-05-05T00:34:32.097Z,7.28
2019-05-05T00:36:39.468Z,7.00
2019-05-05T00:38:46.818Z,7.25
2019-05-05T00:40:55.010Z,6.96
2019-05-05T00:43:02.526Z,6.97
2019-05-05T00:45:10.637Z,7.10
2019-05-05T00:47:29.375Z,7.34
2019-05-05T00:49:46.376Z,6.88
2019-05-05T00:51:47.235Z,6.99
2019-05-05T00:53:55.464Z,7.08
2019-05-05T00:56:04.982Z,7.23
2019-05-05T00:58:14.199Z,7.04
2019-05-05T01:00:44.408Z,6.96
2019-05-05T01:02:54.184Z,6.99
2019-05-05T01:05:14.861Z,6.75
2019-05-05T01:07:22.382Z,6.66
2019-05-05T01:09:30.883Z,6.87
2019-05-05T01:11:39.106Z,6.73
2019-05-05T01:13:46.537Z,6.89
2019-05-05T01:15:54.262Z,6.63
2019-05-05T01:18:02.306Z,6.50
2019-05-05T01:20:09.974Z,6.50
2019-05-05T01:22:17.284Z,6.59
2019-05-05T01:24:24.932Z,6.71
2019-05-05T01:26:32.255Z,6.46
2019-05-05T01:28:39.642Z,6.66
2019-05-05T01:30:49.815Z,6.56
2019-05-05T01:33:31.079Z,6.36
2019-05-05T01:35:38.600Z,6.23
2019-05-05T01:38:04.882Z,6.29
2019-05-05T01:40:30.567Z,6.51
2019-05-05T01:42:37.939Z,6.56
2019-05-05T01:44:45.394Z,6.46
2019-05-05T01:46:54.901Z,6.18
2019-05-05T01:49:01.750Z,6.29
2019-05-05T01:51:09.072Z,6.21
2019-05-05T01:53:16.370Z,6.18
2019-05-05T01:55:25.230Z,6.01
2019-05-05T01:57:34.448Z,6.36
2019-05-05T01:59:42.312Z,6.15
2019-05-05T02:01:49.628Z,6.06
2019-05-05T02:03:56.910Z,6.05
2019-05-05T02:06:05.277Z,5.93
2019-05-05T02:08:12.759Z,6.10
2019-05-05T02:10:20.272Z,6.08
2019-05-05T02:12:27.634Z,6.21
2019-05-05T02:14:35.303Z,6.12
2019-05-05T02:16:42.698Z,6.14
2019-05-05T02:18:49.922Z,6.09
2019-05-05T02:21:09.159Z,5.88
2019-05-05T02:23:17.536Z,6.44
2019-05-05T02:25:25.079Z,6.43
2019-05-05T02:27:34.345Z,6.38
2019-05-05T02:29:57.358Z,6.04
2019-05-05T02:32:38.762Z,6.12
2019-05-05T02:34:51.686Z,6.13
2019-05-05T02:36:59.116Z,6.57
2019-05-05T02:39:10.251Z,6.17
2019-05-05T02:41:19.102Z,6.12
2019-05-05T02:43:28.243Z,6.42
2019-05-05T02:46:18.822Z,6.46
2019-05-05T02:48:29.054Z,6.68
2019-05-05T02:51:00.035Z,6.67
2019-05-05T02:53:05.661Z,6.29
2019-05-05T02:55:14.670Z,6.55
2019-05-05T02:57:24.487Z,6.17
2019-05-05T02:59:54.012Z,5.97
2019-05-05T03:02:09.267Z,6.44
2019-05-05T03:04:17.343Z,6.30
2019-05-05T03:06:24.520Z,6.18
2019-05-05T03:08:33.577Z,6.23
2019-05-05T03:10:41.020Z,6.46
2019-05-05T03:12:48.732Z,6.39
2019-05-05T03:14:59.213Z,6.01
2019-05-05T03:17:14.358Z,6.41
2019-05-05T03:19:25.757Z,6.17
2019-05-05T03:21:33.622Z,6.27
2019-05-05T03:23:41.453Z,6.23
2019-05-05T03:25:49.499Z,6.14
2019-05-05T03:27:56.808Z,6.18
2019-05-05T03:30:05.917Z,6.20
2019-05-05T03:32:16.217Z,6.34
2019-05-05T03:34:24.092Z,6.15
2019-05-05T03:36:33.793Z,5.61
2019-05-05T03:38:40.876Z,5.64
2019-05-05T03:40:51.053Z,5.94
2019-05-05T03:43:07.675Z,5.76
2019-05-05T03:45:44.474Z,6.10
2019-05-05T03:47:54.105Z,6.04
2019-05-05T03:50:04.198Z,5.64
2019-05-05T03:52:10.964Z,5.65
2019-05-05T03:54:19.099Z,5.94
2019-05-05T03:56:27.266Z,6.19
2019-05-05T03:58:34.823Z,5.83
2019-05-05T04:01:31.234Z,5.87
2019-05-05T04:03:38.535Z,6.01
2019-05-05T04:05:55.898Z,5.64
2019-05-05T04:08:03.954Z,5.77
2019-05-05T04:10:11.510Z,5.88
2019-05-05T04:12:18.964Z,5.76
2019-05-05T04:14:26.367Z,5.40
2019-05-05T04:16:39.844Z,5.63
2019-05-05T04:18:51.418Z,5.63
2019-05-05T04:20:58.715Z,5.94
2019-05-05T04:23:06.539Z,6.10
2019-05-05T04:25:13.962Z,6.04
2019-05-05T04:27:21.357Z,5.94
2019-05-05T04:29:28.676Z,5.68
2019-05-05T04:31:36.004Z,5.56
2019-05-05T04:33:44.470Z,5.52
2019-05-05T04:35:51.821Z,5.65
2019-05-05T04:37:59.063Z,5.65
2019-05-05T04:40:06.431Z,5.78
2019-05-05T04:42:14.140Z,5.99
2019-05-05T04:44:23.533Z,5.84
2019-05-05T04:46:30.473Z,5.84
2019-05-05T04:48:46.490Z,5.59
2019-05-05T04:51:18.635Z,5.98
2019-05-05T04:53:34.792Z,5.84
2019-05-05T04:55:44.167Z,5.74
2019-05-05T04:57:51.236Z,5.66
2019-05-05T04:59:59.466Z,5.42
2019-05-05T05:02:15.176Z,5.78
2019-05-05T05:04:30.468Z,5.55
2019-05-05T05:06:44.396Z,5.73
2019-05-05T05:08:53.516Z,5.48
2019-05-05T05:11:00.773Z,5.73
2019-05-05T05:13:08.534Z,5.76
2019-05-05T05:15:16.258Z,5.57
2019-05-05T05:17:33.875Z,5.65
2019-05-05T05:19:41.163Z,5.51
2019-05-05T05:21:59.443Z,5.68
2019-05-05T05:23:57.502Z,5.56
2019-05-05T05:26:05.197Z,5.69
2019-05-05T05:28:14.323Z,5.75
2019-05-05T05:30:24.124Z,5.59
2019-05-05T05:32:30.994Z,5.75
2019-05-05T05:34:38.242Z,5.86
2019-05-05T05:36:45.606Z,5.47
2019-05-05T05:38:54.846Z,5.74
2019-05-05T05:41:13.782Z,5.69
2019-05-05T05:43:27.181Z,6.00
2019-05-05T05:45:43.631Z,5.68
2019-05-05T05:48:14.390Z,5.78
2019-05-05T05:50:41.620Z,5.61
2019-05-05T05:52:48.927Z,5.80
2019-05-05T05:54:56.388Z,5.89
2019-05-05T05:57:04.298Z,5.89
2019-05-05T05:59:11.750Z,5.67
2019-05-05T06:01:18.968Z,5.47
2019-05-05T06:03:26.298Z,5.74
2019-05-05T06:05:34.348Z,5.73
2019-05-05T06:07:44.255Z,5.85
2019-05-05T06:09:51.715Z,5.87
2019-05-05T06:11:58.998Z,5.78
2019-05-05T06:14:06.491Z,5.95
2019-05-05T06:16:14.584Z,5.98
2019-05-05T06:18:24.139Z,5.91
2019-05-05T06:20:31.116Z,5.99
2019-05-05T06:22:38.549Z,5.94
2019-05-05T06:24:45.888Z,5.88
2019-05-05T06:26:54.734Z,5.95
2019-05-05T06:29:04.194Z,5.98
2019-05-05T06:31:11.249Z,5.97
2019-05-05T06:33:18.560Z,6.07
2019-05-05T06:35:26.101Z,6.02
2019-05-05T06:37:34.243Z,5.97
2019-05-05T06:39:43.829Z,5.88
2019-05-05T06:42:09.440Z,6.16
2019-05-05T06:44:24.771Z,6.16
2019-05-05T06:46:51.051Z,5.96
2019-05-05T06:48:58.463Z,6.10
2019-05-05T06:51:05.866Z,6.09
2019-05-05T06:53:13.655Z,6.12
2019-05-05T06:55:21.106Z,6.27
2019-05-05T06:57:28.354Z,6.18
2019-05-05T06:59:35.701Z,6.24
2019-05-05T07:01:44.234Z,6.28
2019-05-05T07:03:51.623Z,6.17
2019-05-05T07:05:59.134Z,6.23
2019-05-05T07:08:06.576Z,6.27
2019-05-05T07:10:14.247Z,6.33
2019-05-05T07:12:21.580Z,6.22
2019-05-05T07:14:28.847Z,6.15
2019-05-05T07:16:36.286Z,6.22
2019-05-05T07:18:44.588Z,6.47
2019-05-05T07:20:54.491Z,6.45
2019-05-05T07:23:05.010Z,6.48
2019-05-05T07:25:11.143Z,6.39
2019-05-05T07:27:18.529Z,6.52
2019-05-05T07:29:29.083Z,6.51
2019-05-05T07:31:36.636Z,6.63
2019-05-05T07:33:44.286Z,6.63
2019-05-05T07:36:10.816Z,6.53
2019-05-05T07:38:18.271Z,6.56
2019-05-05T07:40:25.654Z,6.58
2019-05-05T07:42:33.623Z,6.54
2019-05-05T07:44:41.160Z,6.59
2019-05-05T07:46:48.564Z,6.70
2019-05-05T07:48:56.042Z,6.69
2019-05-05T07:51:05.482Z,6.77
2019-05-05T07:53:17.576Z,6.74
2019-05-05T07:55:23.765Z,6.74
2019-05-05T07:57:31.396Z,6.78
2019-05-05T07:59:38.981Z,6.74
2019-05-05T08:01:46.885Z,6.78
2019-05-05T08:03:54.375Z,6.79
2019-05-05T08:06:03.880Z,6.86
2019-05-05T08:08:10.940Z,6.80
2019-05-05T08:10:18.863Z,6.88
2019-05-05T08:12:27.001Z,6.85
2019-05-05T08:14:34.679Z,6.74
2019-05-05T08:16:58.986Z,6.88
2019-05-05T08:19:24.268Z,7.00
2019-05-05T08:21:31.900Z,7.05
2019-05-05T08:23:47.404Z,7.06
2019-05-05T08:26:26.260Z,7.13
2019-05-05T08:28:43.486Z,7.19
2019-05-05T08:31:10.189Z,7.19
2019-05-05T08:33:17.803Z,7.22
2019-05-05T08:35:25.386Z,7.27
2019-05-05T08:37:34.349Z,7.40
2019-05-05T08:39:41.896Z,7.39
2019-05-05T08:41:49.425Z,7.39
2019-05-05T08:43:56.783Z,7.39
2019-05-05T08:46:04.952Z,7.35
2019-05-05T08:48:14.249Z,7.38
2019-05-05T08:50:24.792Z,7.33
2019-05-05T08:52:31.119Z,7.38
2019-05-05T08:54:38.729Z,7.40
2019-05-05T08:56:46.760Z,7.39
2019-05-05T08:58:54.560Z,7.41
2019-05-05T09:01:04.196Z,7.45
2019-05-05T09:03:13.661Z,7.55
2019-05-05T09:05:20.798Z,7.53
2019-05-05T09:07:28.592Z,7.57
2019-05-05T09:09:36.225Z,7.54
2019-05-05T09:11:43.907Z,7.58
2019-05-05T09:13:53.495Z,7.58
2019-05-05T09:16:00.758Z,7.55
2019-05-05T09:18:08.241Z,7.69
2019-05-05T09:20:17.067Z,7.77
2019-05-05T09:22:24.726Z,7.95
2019-05-05T09:24:48.636Z,8.10
2019-05-05T09:27:04.209Z,8.12
2019-05-05T09:29:24.241Z,8.19
2019-05-05T09:31:31.743Z,8.04
2019-05-05T09:33:41.410Z,8.04
2019-05-05T09:35:49.568Z,8.05
2019-05-05T09:37:57.389Z,8.01
2019-05-05T09:40:05.307Z,8.12
2019-05-05T09:42:14.595Z,8.19
2019-05-05T09:44:24.036Z,8.20
2019-05-05T09:46:31.124Z,8.18
2019-05-05T09:48:38.594Z,8.14
2019-05-05T09:50:46.316Z,8.15
2019-05-05T09:52:53.900Z,8.17
2019-05-05T09:55:03.670Z,8.28
2019-05-05T09:57:10.882Z,8.21
2019-05-05T09:59:18.483Z,8.07
2019-05-05T10:01:29.018Z,8.04
2019-05-05T10:03:36.610Z,8.08
2019-05-05T10:05:45.636Z,8.19
2019-05-05T10:07:54.496Z,8.22
2019-05-05T10:10:02.039Z,8.16
2019-05-05T10:12:09.946Z,8.27
2019-05-05T10:14:17.287Z,8.21
2019-05-05T10:16:24.732Z,8.23
2019-05-05T10:18:35.516Z,8.28
2019-05-05T10:20:41.717Z,8.24
2019-05-05T10:22:49.445Z,8.30
2019-05-05T10:25:16.435Z,8.46
2019-05-05T10:27:24.252Z,8.57
2019-05-05T10:29:31.676Z,8.59
2019-05-05T10:31:39.055Z,8.71
2019-05-05T10:33:53.967Z,8.62
2019-05-05T10:36:01.461Z,8.64
2019-05-05T10:38:10.772Z,8.63
2019-05-05T10:40:21.943Z,8.55
2019-05-05T10:42:46.980Z,8.52
2019-05-05T10:44:55.101Z,8.60
2019-05-05T10:47:04.565Z,8.71
2019-05-05T10:49:13.615Z,8.64
2019-05-05T10:51:23.685Z,8.64
2019-05-05T10:53:30.845Z,8.70
2019-05-05T10:55:38.371Z,8.69
2019-05-05T10:57:45.802Z,8.64
2019-05-05T10:59:54.291Z,8.66
2019-05-05T11:02:01.733Z,8.61
2019-05-05T11:04:09.464Z,8.61
2019-05-05T11:06:17.188Z,8.62
2019-05-05T11:08:25.773Z,8.66
2019-05-05T11:10:35.346Z,8.68
2019-05-05T11:12:44.390Z,8.73
2019-05-05T11:14:52.049Z,8.75
2019-05-05T11:16:59.931Z,8.73
2019-05-05T11:19:07.848Z,8.81
2019-05-05T11:21:15.396Z,8.80
2019-05-05T11:23:24.793Z,8.83
2019-05-05T11:25:33.726Z,8.84
2019-05-05T11:27:43.765Z,8.92
2019-05-05T11:30:08.827Z,8.98
2019-05-05T11:32:26.738Z,8.92
2019-05-05T11:34:34.145Z,8.93
2019-05-05T11:37:00.467Z,8.94
2019-05-05T11:39:09.792Z,8.99
2019-05-05T11:41:17.357Z,9.01
2019-05-05T11:43:25.537Z,8.93
2019-05-05T11:45:34.440Z,8.91
2019-05-05T11:47:44.291Z,8.99
2019-05-05T11:49:54.586Z,9.14
2019-05-05T11:52:01.642Z,9.14
2019-05-05T11:54:09.599Z,9.19
2019-05-05T11:56:17.122Z,9.16
2019-05-05T11:58:25.037Z,9.18
2019-05-05T12:00:34.689Z,9.30
2019-05-05T12:02:43.927Z,9.52
2019-05-05T12:04:54.055Z,9.42
2019-05-05T12:07:03.911Z,9.35
2019-05-05T12:09:20.590Z,9.46
2019-05-05T12:11:29.076Z,9.55
2019-05-05T12:13:36.880Z,9.55
2019-05-05T12:15:46.212Z,9.67
2019-05-05T12:17:54.622Z,9.55
2019-05-05T12:20:04.596Z,9.68
2019-05-05T12:22:11.883Z,9.73
2019-05-05T12:24:24.974Z,9.77
2019-05-05T12:26:49.318Z,9.62
2019-05-05T12:29:02.254Z,9.92
2019-05-05T12:31:14.610Z,10.09
2019-05-05T12:33:23.818Z,10.33
2019-05-05T12:35:31.368Z,10.54
2019-05-05T12:37:38.791Z,10.56
2019-05-05T12:39:46.260Z,10.19
2019-05-05T12:41:54.344Z,10.11
2019-05-05T12:44:03.383Z,10.16
2019-05-05T12:46:21.902Z,10.18
2019-05-05T12:48:34.463Z,10.33
2019-05-05T12:50:44.282Z,10.23
2019-05-05T12:52:54.902Z,10.18
2019-05-05T12:55:04.946Z,10.19
2019-05-05T12:57:13.690Z,10.12
2019-05-05T12:59:24.975Z,10.15
2019-05-05T13:01:37.297Z,10.39
2019-05-05T13:03:44.987Z,10.25
2019-05-05T13:05:53.559Z,10.38
2019-05-05T13:08:01.182Z,10.31
2019-05-05T13:10:10.626Z,10.16
2019-05-05T13:12:17.970Z,10.16
2019-05-05T13:14:25.428Z,10.33
2019-05-05T13:16:32.939Z,10.55
2019-05-05T13:18:40.915Z,10.53
2019-05-05T13:20:56.355Z,10.40
2019-05-05T13:23:23.539Z,10.41
2019-05-05T13:26:08.294Z,10.37
2019-05-05T13:28:15.866Z,10.57
2019-05-05T13:30:23.678Z,10.67
2019-05-05T13:32:31.160Z,10.73
2019-05-05T13:34:38.618Z,10.76
2019-05-05T13:36:46.212Z,10.55
2019-05-05T13:38:54.561Z,10.39
2019-05-05T13:41:03.711Z,10.43
2019-05-05T13:43:11.309Z,10.49
2019-05-05T13:45:26.795Z,10.53
2019-05-05T13:47:34.509Z,10.58
2019-05-05T13:49:43.678Z,10.48
2019-05-05T13:51:53.927Z,10.40
2019-05-05T13:54:01.706Z,10.55
2019-05-05T13:56:12.547Z,10.54
2019-05-05T13:58:19.333Z,10.45
2019-05-05T14:00:27.052Z,10.35
2019-05-05T14:02:34.876Z,10.24
2019-05-05T14:04:43.802Z,10.35
2019-05-05T14:06:51.839Z,10.25
2019-05-05T14:08:59.639Z,10.29
2019-05-05T14:11:07.251Z,10.22
2019-05-05T14:13:15.319Z,10.29
2019-05-05T14:15:24.728Z,10.44
2019-05-05T14:17:32.439Z,10.53
2019-05-05T14:19:39.803Z,10.45
2019-05-05T14:21:47.284Z,10.44
2019-05-05T14:24:14.371Z,10.43
2019-05-05T14:26:27.405Z,10.36
2019-05-05T14:28:31.187Z,10.30
2019-05-05T14:31:15.934Z,10.23
2019-05-05T14:33:29.527Z,10.19
2019-05-05T14:36:01.923Z,10.18
2019-05-05T14:38:14.579Z,10.16
2019-05-05T14:40:22.389Z,10.28
2019-05-05T14:42:29.910Z,10.25
2019-05-05T14:44:37.626Z,10.37
2019-05-05T14:46:45.270Z,10.37
2019-05-05T14:48:53.565Z,10.45
2019-05-05T14:51:01.149Z,10.40
2019-05-05T14:53:08.831Z,10.38
2019-05-05T14:55:17.019Z,10.33
2019-05-05T14:57:28.600Z,10.34
2019-05-05T14:59:37.139Z,10.38
2019-05-05T15:01:45.133Z,10.35
2019-05-05T15:03:53.536Z,10.27
2019-05-05T15:06:09.168Z,10.35
2019-05-05T15:08:38.367Z,10.47
2019-05-05T15:11:10.620Z,10.36
2019-05-05T15:13:18.201Z,10.36
2019-05-05T15:15:25.823Z,10.46
2019-05-05T15:17:33.744Z,10.54
2019-05-05T15:19:43.466Z,10.59
2019-05-05T15:21:50.537Z,10.54
2019-05-05T15:23:57.977Z,10.58
2019-05-05T15:26:05.416Z,10.59
2019-05-05T15:28:13.835Z,10.58
2019-05-05T15:30:24.914Z,10.58
2019-05-05T15:32:31.067Z,10.61
2019-05-05T15:34:38.658Z,10.68
2019-05-05T15:36:46.098Z,10.62
2019-05-05T15:38:55.249Z,10.68
2019-05-05T15:41:03.976Z,10.74
2019-05-05T15:43:11.582Z,10.59
2019-05-05T15:45:19.239Z,10.66
2019-05-05T15:47:27.738Z,10.79
2019-05-05T15:49:35.180Z,10.86
2019-05-05T15:51:44.303Z,10.78
2019-05-05T15:53:54.099Z,10.75
2019-05-05T15:56:01.275Z,10.77
2019-05-05T15:58:08.977Z,10.79
2019-05-05T16:00:18.191Z,10.75
2019-05-05T16:02:25.742Z,10.71
2019-05-05T16:04:34.154Z,10.69
2019-05-05T16:06:41.946Z,10.74
2019-05-05T16:08:49.839Z,10.66
2019-05-05T16:10:57.218Z,10.56
2019-05-05T16:13:04.991Z,10.49
2019-05-05T16:15:38.391Z,10.46
2019-05-05T16:17:53.351Z,10.45
2019-05-05T16:20:25.658Z,10.45
2019-05-05T16:22:38.927Z,10.44
2019-05-05T16:24:51.316Z,10.38
2019-05-05T16:27:00.462Z,10.34
2019-05-05T16:29:08.458Z,10.33
2019-05-05T16:31:16.183Z,10.34
2019-05-05T16:33:24.171Z,10.30
2019-05-05T16:35:31.845Z,10.29
2019-05-05T16:37:39.515Z,10.26
2019-05-05T16:39:47.367Z,10.21
2019-05-05T16:41:54.861Z,10.20
2019-05-05T16:44:02.427Z,10.16
2019-05-05T16:46:10.517Z,10.15
2019-05-05T16:48:18.276Z,10.19
2019-05-05T16:50:26.582Z,10.19
2019-05-05T16:52:40.467Z,10.19
2019-05-05T16:55:06.760Z,10.17
2019-05-05T16:57:14.490Z,10.20
2019-05-05T16:59:23.741Z,10.21
2019-05-05T17:01:31.370Z,10.18
2019-05-05T17:03:38.699Z,10.15
2019-05-05T17:05:46.950Z,10.16
2019-05-05T17:07:55.829Z,10.15
2019-05-05T17:10:06.061Z,10.14
2019-05-05T17:12:14.116Z,10.16
2019-05-05T17:14:29.089Z,10.10
2019-05-05T17:16:58.378Z,10.09
2019-05-05T17:19:17.268Z,10.08
2019-05-05T17:21:34.106Z,10.04
2019-05-05T17:23:43.449Z,10.03
2019-05-05T17:25:53.688Z,10.01
2019-05-05T17:28:01.372Z,10.01
2019-05-05T17:30:09.600Z,9.98
2019-05-05T17:32:17.295Z,9.97
2019-05-05T17:34:25.289Z,9.95
2019-05-05T17:36:33.120Z,9.96
2019-05-05T17:38:40.695Z,9.93
2019-05-05T17:41:26.025Z,9.91
2019-05-05T17:43:45.460Z,9.87
2019-05-05T17:45:57.957Z,9.85
2019-05-05T17:48:09.699Z,9.86
2019-05-05T17:50:23.824Z,9.83
2019-05-05T17:52:53.848Z,9.80
2019-05-05T17:55:05.075Z,9.76
2019-05-05T17:57:14.223Z,9.74
2019-05-05T17:59:23.547Z,9.74
2019-05-05T18:01:33.476Z,9.73
2019-05-05T18:03:40.501Z,9.72
2019-05-05T18:06:09.899Z,9.70
2019-05-05T18:08:35.014Z,9.69
2019-05-05T18:10:47.559Z,9.67
2019-05-05T18:13:26.429Z,9.63
2019-05-05T18:15:51.524Z,9.61
2019-05-05T18:17:59.312Z,9.54
2019-05-05T18:20:07.215Z,9.49
2019-05-05T18:22:14.602Z,9.45
2019-05-05T18:24:24.092Z,9.45
2019-05-05T18:26:31.111Z,9.37
2019-05-05T18:28:38.617Z,9.34
2019-05-05T18:30:46.219Z,9.36
2019-05-05T18:32:53.852Z,9.37
2019-05-05T18:35:04.485Z,9.28
2019-05-05T18:37:11.443Z,9.10
2019-05-05T18:39:18.847Z,8.83
2019-05-05T18:41:34.464Z,8.86
2019-05-05T18:43:48.076Z,9.06
2019-05-05T18:46:04.570Z,9.08
2019-05-05T18:48:13.972Z,8.85
2019-05-05T18:50:21.572Z,9.01
2019-05-05T18:52:28.983Z,8.90
2019-05-05T18:54:36.394Z,8.85
2019-05-05T18:56:44.092Z,8.49
2019-05-05T18:58:54.118Z,8.41
2019-05-05T19:01:14.510Z,8.21
2019-05-05T19:03:25.906Z,8.07
2019-05-05T19:05:57.307Z,8.06
2019-05-05T19:08:24.458Z,8.10
2019-05-05T19:10:33.690Z,8.20
2019-05-05T19:12:41.411Z,7.99
2019-05-05T19:14:49.375Z,7.89
2019-05-05T19:16:57.154Z,7.76
2019-05-05T19:19:04.890Z,7.66
2019-05-05T19:21:21.565Z,7.58
2019-05-05T19:23:29.046Z,7.45
2019-05-05T19:25:36.687Z,7.39
2019-05-05T19:27:44.812Z,7.46
2019-05-05T19:29:53.671Z,7.56
2019-05-05T19:32:01.177Z,7.52
2019-05-05T19:34:08.767Z,7.38
2019-05-05T19:36:16.377Z,7.37
2019-05-05T19:38:24.138Z,7.36
2019-05-05T19:40:33.794Z,7.28
2019-05-05T19:42:41.057Z,7.24
2019-05-05T19:44:48.643Z,7.24
2019-05-05T19:47:05.891Z,7.16
2019-05-05T19:49:20.635Z,7.18
2019-05-05T19:51:28.070Z,7.28
2019-05-05T19:53:38.323Z,7.37
2019-05-05T19:55:46.114Z,7.23
2019-05-05T19:57:54.105Z,7.09
2019-05-05T20:00:03.817Z,7.00
2019-05-05T20:02:11.103Z,7.07
2019-05-05T20:04:18.711Z,7.13
2019-05-05T20:06:26.485Z,7.11
2019-05-05T20:08:40.953Z,7.12
2019-05-05T20:10:44.259Z,7.10
2019-05-05T20:12:54.031Z,7.17
2019-05-05T20:15:04.086Z,7.10
2019-05-05T20:17:17.676Z,7.04
2019-05-05T20:19:25.243Z,7.37
2019-05-05T20:21:34.643Z,7.36
2019-05-05T20:23:43.619Z,7.41
2019-05-05T20:25:51.198Z,7.39
2019-05-05T20:27:58.611Z,7.29
2019-05-05T20:30:09.019Z,7.14
2019-05-05T20:32:18.769Z,7.03
2019-05-05T20:34:36.309Z,7.19
2019-05-05T20:37:04.286Z,7.02
2019-05-05T20:39:13.868Z,6.93
2019-05-05T20:41:22.302Z,7.20
2019-05-05T20:43:30.341Z,7.52
2019-05-05T20:45:37.976Z,7.52
2019-05-05T20:47:45.467Z,7.66
2019-05-05T20:49:53.890Z,7.64
2019-05-05T20:52:03.563Z,7.73
2019-05-05T20:54:10.570Z,7.52
2019-05-05T20:56:18.006Z,7.70
2019-05-05T20:58:25.312Z,7.70
2019-05-05T21:00:34.764Z,7.68
2019-05-05T21:02:43.587Z,7.73
2019-05-05T21:04:51.160Z,7.68
2019-05-05T21:06:58.492Z,7.71
2019-05-05T21:09:08.706Z,7.66
2019-05-05T21:11:16.354Z,7.62
2019-05-05T21:13:24.078Z,7.59
2019-05-05T21:15:33.772Z,7.50
2019-05-05T21:17:40.884Z,7.52
2019-05-05T21:19:48.300Z,7.54
2019-05-05T21:21:57.861Z,7.53
2019-05-05T21:24:05.526Z,7.49
2019-05-05T21:26:19.349Z,7.51
2019-05-05T21:28:26.699Z,7.41
2019-05-05T21:30:34.222Z,7.38
2019-05-05T21:32:43.395Z,7.48
2019-05-05T21:34:50.651Z,7.39
2019-05-05T21:36:57.930Z,7.31
2019-05-05T21:39:06.922Z,7.37
2019-05-05T21:41:14.402Z,7.27
2019-05-05T21:43:21.884Z,7.33
2019-05-05T21:45:29.273Z,7.30
2019-05-05T21:47:36.671Z,7.34
2019-05-05T21:49:44.067Z,7.24
2019-05-05T21:52:10.094Z,7.23
2019-05-05T21:54:34.942Z,7.28
2019-05-05T21:56:59.015Z,7.34
2019-05-05T21:59:06.435Z,7.18
2019-05-05T22:01:27.139Z,7.20
2019-05-05T22:03:35.553Z,7.05
2019-05-05T22:05:43.834Z,6.94
2019-05-05T22:07:51.243Z,6.86
2019-05-05T22:09:58.970Z,6.84
2019-05-05T22:12:06.620Z,6.72
2019-05-05T22:14:14.175Z,6.58
2019-05-05T22:16:21.504Z,6.66
2019-05-05T22:18:28.733Z,6.69
2019-05-05T22:20:44.074Z,6.73
2019-05-05T22:22:50.825Z,6.76
2019-05-05T22:24:59.754Z,6.85
2019-05-05T22:27:07.138Z,6.75
2019-05-05T22:29:17.110Z,6.71
2019-05-05T22:31:23.852Z,6.67
2019-05-05T22:33:31.262Z,6.60
2019-05-05T22:35:38.592Z,6.66
2019-05-05T22:37:45.939Z,6.68
2019-05-05T22:39:54.203Z,6.70
2019-05-05T22:42:01.740Z,6.68
2019-05-05T22:44:09.517Z,6.66
2019-05-05T22:46:16.811Z,6.68
2019-05-05T22:48:24.108Z,6.46
2019-05-05T22:50:33.928Z,6.44
2019-05-05T22:52:40.686Z,6.43
2019-05-05T22:54:47.925Z,6.41
2019-05-05T22:56:55.276Z,6.45
2019-05-05T22:59:04.366Z,6.29
2019-05-05T23:01:13.546Z,6.25
2019-05-05T23:03:29.879Z,6.30
2019-05-05T23:06:11.198Z,6.10
2019-05-05T23:08:18.789Z,5.87
2019-05-05T23:10:26.026Z,5.49
2019-05-05T23:12:35.086Z,5.41
2019-05-05T23:14:43.702Z,5.32
2019-05-05T23:16:53.806Z,5.14
2019-05-05T23:19:02.826Z,5.31
2019-05-05T23:21:28.711Z,5.24
2019-05-05T23:23:55.963Z,5.15
2019-05-05T23:26:04.099Z,5.04
2019-05-05T23:28:12.319Z,4.95
2019-05-05T23:30:21.089Z,4.90
2019-05-05T23:32:28.389Z,4.78
2019-05-05T23:34:35.690Z,4.71
2019-05-05T23:36:44.295Z,4.67
2019-05-05T23:38:51.767Z,4.52
2019-05-05T23:40:59.249Z,4.49
2019-05-05T23:43:06.520Z,4.40
2019-05-05T23:45:13.989Z,4.23
2019-05-05T23:47:21.247Z,4.27
2019-05-05T23:49:28.624Z,4.22
2019-05-05T23:51:36.022Z,4.29
2019-05-05T23:53:44.471Z,4.21
2019-05-05T23:55:51.892Z,4.16
2019-05-05T23:57:59.136Z,4.03
